LHSM/SOB METAR and TAF weather

Enter ICAO airport designator
Station Type Date Time Source
LHSM METAR 2021/03/03 02:15 UTC NOAA

LHSM 030215Z AUTO 00000KT 6000 NCD M01/M02 Q1032


Station Type Date Time Source
LHSM Decoded METAR 2021/03/03 02:15 UTC NOAA

Station name not available
Mar 02, 2021 - 09:15 PM EST / 2021.03.03 0215 UTC
Wind: Calm:0
Visibility: 3 mile(s):0
Temperature: 30 F (-1 C)
Dew Point: 28 F (-2 C)
Relative Humidity: 92%
Pressure (altimeter): 30.47 in. Hg (1032 hPa)
ob: LHSM 030215Z AUTO 00000KT 6000 NCD M01/M02 Q1032
cycle: 2

Station Type Date Time Source
LHSM TAF UTC NOAA

Error!

Example: see airport list